createdAt,value
2024-01-10T00:03:28.637Z,36.07
2024-01-10T00:08:53.578Z,39.83
2024-01-10T00:14:18.621Z,35.63
2024-01-10T00:19:46.608Z,37.87
2024-01-10T00:25:10.593Z,39.77
2024-01-10T00:30:36.669Z,40.10
2024-01-10T00:36:03.583Z,34.43
2024-01-10T00:41:28.559Z,38.53
2024-01-10T00:46:52.550Z,32.43
2024-01-10T00:52:20.567Z,34.23
2024-01-10T00:57:45.608Z,33.93
2024-01-10T01:03:10.600Z,31.70
2024-01-10T01:08:37.588Z,33.97
2024-01-10T01:14:02.634Z,34.03
2024-01-10T01:19:26.554Z,32.63
2024-01-10T01:24:54.569Z,36.27
2024-01-10T01:30:19.589Z,36.37
2024-01-10T01:35:44.620Z,35.17
2024-01-10T01:41:13.634Z,37.67
2024-01-10T01:46:38.582Z,34.90
2024-01-10T01:52:03.572Z,34.47
2024-01-10T01:57:31.601Z,32.93
2024-01-10T02:02:56.765Z,37.87
2024-01-10T02:08:21.654Z,36.00
2024-01-10T02:13:49.627Z,37.37
2024-01-10T02:19:29.627Z,36.97
2024-01-10T02:24:53.615Z,36.53
2024-01-10T02:30:21.620Z,34.87
2024-01-10T02:35:45.614Z,36.10
2024-01-10T02:41:10.705Z,34.13
2024-01-10T02:46:38.740Z,33.67
2024-01-10T02:52:03.612Z,35.60
2024-01-10T02:57:27.599Z,34.87
2024-01-10T03:02:55.594Z,32.30
2024-01-10T03:08:20.676Z,34.73
2024-01-10T03:13:46.694Z,32.53
2024-01-10T03:19:13.682Z,35.80
2024-01-10T03:24:38.596Z,37.43
2024-01-10T03:30:03.625Z,37.03
2024-01-10T03:35:31.683Z,35.57
2024-01-10T03:40:55.655Z,37.80
2024-01-10T03:46:21.639Z,34.70
2024-01-10T03:51:49.652Z,35.33
2024-01-10T03:57:15.643Z,37.47
2024-01-10T04:02:39.955Z,38.67
2024-01-10T04:08:08.960Z,37.07
2024-01-10T04:13:33.681Z,37.90
2024-01-10T04:18:58.703Z,36.00
2024-01-10T04:24:32.605Z,38.20
2024-01-10T04:30:00.133Z,36.83
2024-01-10T04:35:25.851Z,35.63
2024-01-10T04:40:53.653Z,34.90
2024-01-10T04:46:18.642Z,31.83
2024-01-10T04:51:43.659Z,33.77
2024-01-10T04:57:11.617Z,35.77
2024-01-10T05:02:36.830Z,37.73
2024-01-10T05:08:01.630Z,39.33
2024-01-10T05:13:31.816Z,46.57
2024-01-10T05:19:01.831Z,48.53
2024-01-10T05:24:27.641Z,44.30
2024-01-10T05:29:55.662Z,52.03
2024-01-10T05:35:20.706Z,44.83
2024-01-10T05:40:45.750Z,38.53
2024-01-10T05:46:13.636Z,36.13
2024-01-10T05:51:37.649Z,35.20
2024-01-10T05:57:02.705Z,35.37
2024-01-10T06:02:29.748Z,38.30
2024-01-10T06:08:00.704Z,37.83
2024-01-10T06:13:25.722Z,35.97
2024-01-10T06:18:52.744Z,39.47
2024-01-10T06:24:17.683Z,35.73
2024-01-10T06:29:41.644Z,37.47
2024-01-10T06:35:12.714Z,38.00
2024-01-10T06:40:37.923Z,37.87
2024-01-10T06:46:02.673Z,35.97
2024-01-10T06:51:29.653Z,37.20
2024-01-10T06:56:54.648Z,36.33
2024-01-10T07:02:18.716Z,36.50
2024-01-10T07:07:46.763Z,35.80
2024-01-10T07:13:12.665Z,38.43
2024-01-10T07:18:38.740Z,33.83
2024-01-10T07:24:07.661Z,35.27
2024-01-10T07:29:32.672Z,35.60
2024-01-10T07:34:56.711Z,37.97
2024-01-10T07:40:24.701Z,36.23
2024-01-10T07:45:48.731Z,37.07
2024-01-10T07:51:14.669Z,40.30
2024-01-10T07:56:41.692Z,36.40
2024-01-10T08:02:07.723Z,35.87
2024-01-10T08:07:40.845Z,34.90
2024-01-10T08:13:08.683Z,38.33
2024-01-10T08:18:32.787Z,39.60
2024-01-10T08:23:57.726Z,37.93
2024-01-10T08:29:25.741Z,43.10
2024-01-10T08:34:52.752Z,46.77
2024-01-10T08:40:19.692Z,48.53
2024-01-10T08:45:47.734Z,50.23
2024-01-10T08:51:12.772Z,56.10
2024-01-10T08:56:37.714Z,52.97
2024-01-10T09:02:04.721Z,53.00
2024-01-10T09:07:35.701Z,55.07
2024-01-10T09:13:00.686Z,56.63
2024-01-10T09:18:27.941Z,54.67
2024-01-10T09:23:52.726Z,55.90
2024-01-10T09:29:16.858Z,57.77
2024-01-10T09:34:44.763Z,55.83
2024-01-10T09:40:08.711Z,54.47
2024-01-10T09:45:36.721Z,58.10
2024-01-10T09:51:06.716Z,52.57
2024-01-10T09:56:31.787Z,56.65
2024-01-10T10:01:55.735Z,59.87
2024-01-10T10:07:23.755Z,54.77
2024-01-10T10:13:00.732Z,64.73
2024-01-10T10:18:26.782Z,55.67
2024-01-10T10:23:53.697Z,54.63
2024-01-10T10:29:19.788Z,59.70
2024-01-10T10:34:47.865Z,60.47
2024-01-10T10:40:17.320Z,59.20
2024-01-10T10:45:41.717Z,58.10
2024-01-10T10:51:15.718Z,48.30
2024-01-10T10:56:47.755Z,55.03
2024-01-10T11:02:13.891Z,57.22
2024-01-10T11:07:37.738Z,54.22
2024-01-10T11:13:28.748Z,54.28
2024-01-10T11:24:29.774Z,62.53
2024-01-10T11:29:57.719Z,50.55
2024-01-10T11:35:32.841Z,52.95
2024-01-10T11:41:05.650Z,57.25
2024-01-10T11:46:37.737Z,54.05
2024-01-10T11:52:03.733Z,49.23
2024-01-10T11:57:32.817Z,53.53
2024-01-10T12:03:04.745Z,54.95
2024-01-10T12:08:29.783Z,48.05
2024-01-10T12:13:53.775Z,51.72
2024-01-10T12:19:21.767Z,52.30
2024-01-10T12:24:46.794Z,53.25
2024-01-10T12:30:13.823Z,49.17
2024-01-10T12:35:40.752Z,55.60
2024-01-10T12:41:05.978Z,49.22
2024-01-10T12:46:31.770Z,52.00
2024-01-10T12:51:59.769Z,49.20
2024-01-10T12:57:23.846Z,50.80
2024-01-10T13:02:48.821Z,48.47
2024-01-10T13:08:16.915Z,46.67
2024-01-10T13:13:41.788Z,49.20
2024-01-10T13:19:06.871Z,49.80
2024-01-10T13:24:34.850Z,49.85
2024-01-10T13:29:58.806Z,45.35
2024-01-10T13:35:24.788Z,45.20
2024-01-10T13:40:51.826Z,43.40
2024-01-10T13:46:16.863Z,46.65
2024-01-10T13:51:41.838Z,39.00
2024-01-10T13:57:09.789Z,48.60
2024-01-10T14:02:33.866Z,39.95
2024-01-10T14:07:58.817Z,42.88
2024-01-10T14:13:26.788Z,41.03
2024-01-10T14:18:51.798Z,43.33
2024-01-10T14:24:17.817Z,43.15
2024-01-10T14:29:45.827Z,40.92
2024-01-10T14:35:10.034Z,46.25
2024-01-10T14:40:40.889Z,44.33
2024-01-10T14:46:08.827Z,41.22
2024-01-10T14:51:32.865Z,39.60
2024-01-10T14:56:58.892Z,43.53
2024-01-10T15:02:26.874Z,43.47
2024-01-10T15:07:51.825Z,47.35
2024-01-10T15:13:16.814Z,46.90
2024-01-10T15:18:44.830Z,47.28
2024-01-10T15:24:09.879Z,55.10
2024-01-10T15:29:35.812Z,53.55
2024-01-10T15:35:02.879Z,55.53
2024-01-10T15:40:33.841Z,61.03
2024-01-10T15:45:58.836Z,52.28
2024-01-10T15:51:25.808Z,56.03
2024-01-10T15:56:50.814Z,55.80
2024-01-10T16:02:15.856Z,52.03
2024-01-10T16:07:43.804Z,55.25
2024-01-10T16:13:10.829Z,48.30
2024-01-10T16:18:36.890Z,52.33
2024-01-10T16:24:04.828Z,55.85
2024-01-10T16:29:29.942Z,52.53
2024-01-10T16:34:54.074Z,53.80
2024-01-10T16:40:24.837Z,57.78
2024-01-10T16:51:14.818Z,55.15
2024-01-10T16:56:41.852Z,53.55
2024-01-10T17:02:06.870Z,55.10
2024-01-10T17:07:31.822Z,50.60
2024-01-10T17:13:05.961Z,53.40
2024-01-10T17:18:31.004Z,55.05
2024-01-10T17:23:55.836Z,50.47
2024-01-10T17:29:24.011Z,53.03
2024-01-10T17:34:48.876Z,52.92
2024-01-10T17:40:15.859Z,51.95
2024-01-10T17:45:43.871Z,50.83
2024-01-10T17:51:09.829Z,50.92
2024-01-10T17:56:34.876Z,51.20
2024-01-10T18:02:04.032Z,50.15
2024-01-10T18:07:28.826Z,51.65
2024-01-10T18:12:53.822Z,53.35
2024-01-10T18:18:20.939Z,52.83
2024-01-10T18:23:45.863Z,56.63
2024-01-10T18:29:10.899Z,48.60
2024-01-10T18:34:38.856Z,55.58
2024-01-10T18:40:03.909Z,57.27
2024-01-10T18:45:28.868Z,73.75
2024-01-10T18:50:56.916Z,68.68
2024-01-10T18:56:21.960Z,63.72
2024-01-10T19:01:45.826Z,64.40
2024-01-10T19:07:13.940Z,68.50
2024-01-10T19:12:37.869Z,74.37
2024-01-10T19:18:02.931Z,65.23
2024-01-10T19:23:29.913Z,59.25
2024-01-10T19:28:54.964Z,65.97
2024-01-10T19:34:18.933Z,63.00
2024-01-10T19:39:47.880Z,76.50
2024-01-10T19:45:11.852Z,59.60
2024-01-10T19:50:37.138Z,60.03
2024-01-10T19:56:03.932Z,58.97
2024-01-10T20:01:28.877Z,62.23
2024-01-10T20:06:52.837Z,60.37
2024-01-10T20:12:21.006Z,61.07
2024-01-10T20:17:46.986Z,63.50
2024-01-10T20:23:12.889Z,70.47
2024-01-10T20:28:39.902Z,67.27
2024-01-10T20:34:05.002Z,71.60
2024-01-10T20:39:30.860Z,75.13
2024-01-10T20:44:58.950Z,73.93
2024-01-10T20:50:25.961Z,70.40
2024-01-10T20:55:50.924Z,72.10
2024-01-10T21:01:17.920Z,76.07
2024-01-10T21:06:44.432Z,76.93
2024-01-10T21:12:11.520Z,73.87
2024-01-10T21:17:40.108Z,81.73
2024-01-10T21:23:03.915Z,77.43
2024-01-10T21:28:28.881Z,67.50
2024-01-10T21:33:55.993Z,72.17
2024-01-10T21:39:20.912Z,73.00
2024-01-10T21:44:44.892Z,75.73
2024-01-10T21:50:12.967Z,71.87
2024-01-10T21:55:36.914Z,70.93
2024-01-10T22:01:01.970Z,68.47
2024-01-10T22:06:29.104Z,64.03
2024-01-10T22:11:53.908Z,63.93
2024-01-10T22:17:17.954Z,61.93
2024-01-10T22:22:45.906Z,60.33
2024-01-10T22:28:09.919Z,59.23
2024-01-10T22:33:34.997Z,60.93
2024-01-10T22:39:01.907Z,63.97
2024-01-10T22:44:26.997Z,68.60
2024-01-10T22:49:50.982Z,66.23
2024-01-10T22:55:18.906Z,66.77
2024-01-10T23:00:42.909Z,69.67
2024-01-10T23:06:08.116Z,68.63
2024-01-10T23:11:34.962Z,66.40
2024-01-10T23:16:59.985Z,74.03
2024-01-10T23:22:23.944Z,63.53
2024-01-10T23:27:52.935Z,60.30
2024-01-10T23:33:17.007Z,57.33
2024-01-10T23:38:41.936Z,56.00
2024-01-10T23:44:08.989Z,60.10
2024-01-10T23:49:34.020Z,58.67
2024-01-10T23:54:58.963Z,58.17
